Time;durP1;ratioP1;P1;durP2;ratioP2;P2;SDS_P1;SDS_P2;PMS_P1;PMS_P2;Temp;Humidity;BMP_temperature;BMP_pressure;BME280_temperature;BME280_humidity;BME280_pressure;Samples;Min_cycle;Max_cycle;Signal;HPM_P1;HPM_P2
2022/12/04 00:00:35;;;;;;;58.38;28.82;;;;;;;;;;5242012;28;20019;-74
2022/12/04 00:03:06;;;;;;;55.07;30.57;;;;;;;;;;5242686;28;20025;-74
2022/12/04 00:05:37;;;;;;;57.96;31.90;;;;;;;;;;5242518;28;20121;-74
2022/12/04 00:08:09;;;;;;;56.17;29.63;;;;;;;;;;5242080;28;20014;-74
2022/12/04 00:10:42;;;;;;;58.64;30.74;;;;;;;;;;5242108;28;20034;-74
2022/12/04 00:13:13;;;;;;;57.93;30.43;;;;;;;;;;5242098;28;20013;-74
2022/12/04 00:15:44;;;;;;;55.50;29.60;;;;;;;;;;5242166;28;20037;-74
2022/12/04 00:18:15;;;;;;;55.10;29.23;;;;;;;;;;5242586;28;20022;-74
2022/12/04 00:20:47;;;;;;;62.10;31.63;;;;;;;;;;5241024;28;20025;-74
2022/12/04 00:23:18;;;;;;;56.80;30.03;;;;;;;;;;5242172;28;20155;-74
2022/12/04 00:25:49;;;;;;;56.93;31.57;;;;;;;;;;5241764;28;20503;-74
2022/12/04 00:28:20;;;;;;;59.07;32.10;;;;;;;;;;5241289;28;20044;-74
2022/12/04 00:30:51;;;;;;;52.77;29.10;;;;;;;;;;5241867;28;20021;-74
2022/12/04 00:33:23;;;;;;;56.28;30.04;;;;;;;;;;5241803;28;20380;-75
2022/12/04 00:35:57;;;;;;;59.30;30.57;;;;;;;;;;5240911;28;20496;-74
2022/12/04 00:38:29;;;;;;;51.43;28.00;;;;;;;;;;5241743;28;20013;-74
2022/12/04 00:41:00;;;;;;;52.30;29.60;;;;;;;;;;5241695;28;20132;-74
2022/12/04 00:43:32;;;;;;;56.83;30.83;;;;;;;;;;5241081;28;20074;-74
2022/12/04 00:46:03;;;;;;;55.90;30.37;;;;;;;;;;5241589;28;20037;-74
2022/12/04 00:48:34;;;;;;;55.37;30.80;;;;;;;;;;5241094;28;20021;-74
2022/12/04 00:51:10;;;;;;;58.73;30.73;;;;;;;;;;5241468;28;20029;-75
2022/12/04 00:53:41;;;;;;;58.20;30.90;;;;;;;;;;5241169;28;20071;-75
2022/12/04 00:56:14;;;;;;;57.70;31.43;;;;;;;;;;5240170;28;20010;-75
2022/12/04 00:58:46;;;;;;;57.43;29.77;;;;;;;;;;5241195;28;20072;-74
2022/12/04 01:01:18;;;;;;;56.20;29.50;;;;;;;;;;5241442;28;20022;-75
2022/12/04 01:03:49;;;;;;;57.57;30.90;;;;;;;;;;5240358;28;20025;-74
2022/12/04 01:06:24;;;;;;;57.80;33.37;;;;;;;;;;5241103;28;20036;-74
2022/12/04 01:08:56;;;;;;;55.33;31.50;;;;;;;;;;5240918;28;20017;-74
2022/12/04 01:11:28;;;;;;;57.77;29.50;;;;;;;;;;5240291;28;20021;-74
2022/12/04 01:13:59;;;;;;;55.33;30.90;;;;;;;;;;5240915;28;20480;-74
2022/12/04 01:16:32;;;;;;;49.53;27.97;;;;;;;;;;5240113;28;20034;-75
2022/12/04 01:19:07;;;;;;;53.60;29.07;;;;;;;;;;5240837;28;20047;-74
2022/12/04 01:21:38;;;;;;;65.47;33.03;;;;;;;;;;5240584;28;20520;-74
2022/12/04 01:24:10;;;;;;;62.50;31.47;;;;;;;;;;5240543;28;20056;-74
2022/12/04 01:26:41;;;;;;;64.74;33.78;;;;;;;;;;5240310;28;20032;-74
2022/12/04 01:29:12;;;;;;;56.37;29.90;;;;;;;;;;5241172;28;20025;-75
2022/12/04 01:31:43;;;;;;;61.47;33.77;;;;;;;;;;5239608;28;20028;-74
2022/12/04 01:34:14;;;;;;;52.56;29.40;;;;;;;;;;5240758;28;20022;-74
2022/12/04 01:36:45;;;;;;;55.02;30.56;;;;;;;;;;5240270;28;20028;-74
2022/12/04 01:39:17;;;;;;;57.90;32.10;;;;;;;;;;5240076;28;20033;-73
2022/12/04 01:41:48;;;;;;;60.07;33.30;;;;;;;;;;5240028;28;20021;-74
2022/12/04 01:44:20;;;;;;;55.17;30.30;;;;;;;;;;5240617;28;20021;-74
2022/12/04 01:46:53;;;;;;;51.90;30.00;;;;;;;;;;5239702;28;20026;-74
2022/12/04 01:49:28;;;;;;;55.73;30.67;;;;;;;;;;5240508;28;20017;-74
2022/12/04 01:52:08;;;;;;;57.37;30.67;;;;;;;;;;5239657;28;20356;-74
2022/12/04 01:54:42;;;;;;;57.27;30.93;;;;;;;;;;5239978;28;20029;-73
2022/12/04 01:57:17;;;;;;;55.77;30.50;;;;;;;;;;5240401;28;20028;-74
2022/12/04 01:59:54;;;;;;;51.57;29.67;;;;;;;;;;5239538;28;20021;-74
2022/12/04 02:02:30;;;;;;;54.20;28.90;;;;;;;;;;5240378;28;20024;-74
2022/12/04 02:05:02;;;;;;;56.10;29.67;;;;;;;;;;5240218;28;20033;-74
2022/12/04 02:07:34;;;;;;;57.60;30.20;;;;;;;;;;5239261;28;20021;-75
2022/12/04 02:10:07;;;;;;;55.87;30.70;;;;;;;;;;5240064;28;20468;-75
2022/12/04 02:12:57;;;;;;;48.57;27.57;;;;;;;;;;5239785;28;20024;-74
2022/12/04 02:15:34;;;;;;;55.63;32.03;;;;;;;;;;5240092;28;20507;-74
2022/12/04 02:18:09;;;;;;;55.07;31.07;;;;;;;;;;5240223;28;20031;-74
2022/12/04 02:21:04;;;;;;;62.80;32.77;;;;;;;;;;5239032;28;20424;-74
2022/12/04 02:23:35;;;;;;;56.30;32.30;;;;;;;;;;5193795;28;20099;-72
2022/12/04 02:26:06;;;;;;;52.57;30.03;;;;;;;;;;5239601;28;20041;-73
2022/12/04 02:28:44;;;;;;;56.70;32.10;;;;;;;;;;5239349;28;20014;-73
2022/12/04 02:31:18;;;;;;;54.57;30.47;;;;;;;;;;5240438;28;20080;-73
2022/12/04 02:34:01;;;;;;;51.30;28.73;;;;;;;;;;5239489;28;20021;-73
2022/12/04 02:36:35;;;;;;;49.63;29.67;;;;;;;;;;5239680;28;20624;-73
2022/12/04 02:39:26;;;;;;;53.53;29.80;;;;;;;;;;5239939;28;20025;-73
2022/12/04 02:42:11;;;;;;;50.17;28.17;;;;;;;;;;5238128;28;20029;-73
2022/12/04 02:44:47;;;;;;;54.83;30.17;;;;;;;;;;5239551;28;20393;-73
2022/12/04 02:47:21;;;;;;;57.83;31.43;;;;;;;;;;5240362;28;20029;-73
2022/12/04 02:49:52;;;;;;;51.57;29.67;;;;;;;;;;5238986;28;20461;-73
2022/12/04 02:52:44;;;;;;;55.38;33.47;;;;;;;;;;5239608;28;20021;-73
2022/12/04 02:55:19;;;;;;;56.60;32.33;;;;;;;;;;5238529;28;20068;-73
2022/12/04 02:57:52;;;;;;;56.47;31.33;;;;;;;;;;5239378;28;20025;-73
2022/12/04 03:00:23;;;;;;;57.07;30.70;;;;;;;;;;5239537;28;20029;-73
2022/12/04 03:02:59;;;;;;;55.53;31.37;;;;;;;;;;5238721;28;20075;-73
2022/12/04 03:05:40;;;;;;;52.97;29.83;;;;;;;;;;5239226;28;20056;-74
2022/12/04 03:08:14;;;;;;;52.10;30.63;;;;;;;;;;5240057;28;20424;-73
2022/12/04 03:10:48;;;;;;;55.47;32.77;;;;;;;;;;5238297;28;20033;-73
2022/12/04 03:13:22;;;;;;;54.97;31.80;;;;;;;;;;5240019;28;20469;-73
2022/12/04 03:16:22;;;;;;;55.57;31.80;;;;;;;;;;5239209;28;20036;-73
2022/12/04 03:18:59;;;;;;;57.97;31.10;;;;;;;;;;5217869;28;20452;-74
2022/12/04 03:21:33;;;;;;;56.03;32.63;;;;;;;;;;5242888;28;20032;-74
2022/12/04 03:24:07;;;;;;;57.87;33.20;;;;;;;;;;5242030;28;20388;-73
2022/12/04 03:26:54;;;;;;;53.40;30.97;;;;;;;;;;5242759;28;20043;-73
2022/12/04 03:29:29;;;;;;;57.27;32.23;;;;;;;;;;5242758;28;20025;-72
2022/12/04 03:32:06;;;;;;;62.13;34.03;;;;;;;;;;5242172;28;20483;-73
2022/12/04 03:34:44;;;;;;;58.40;32.50;;;;;;;;;;5242829;28;20046;-73
2022/12/04 03:37:18;;;;;;;62.33;36.50;;;;;;;;;;5242707;28;20389;-75
2022/12/04 03:39:55;;;;;;;57.70;32.73;;;;;;;;;;5242688;28;20140;-74
2022/12/04 03:42:37;;;;;;;62.77;35.20;;;;;;;;;;5243031;28;20025;-74
2022/12/04 03:45:13;;;;;;;56.60;33.30;;;;;;;;;;5242064;28;20021;-74
2022/12/04 03:47:47;;;;;;;54.17;32.27;;;;;;;;;;5242685;28;20361;-74
2022/12/04 03:50:22;;;;;;;56.80;32.70;;;;;;;;;;5243216;28;20216;-73
2022/12/04 03:53:00;;;;;;;58.60;34.87;;;;;;;;;;5241912;28;20095;-73
2022/12/04 03:55:38;;;;;;;60.38;34.30;;;;;;;;;;5242536;28;20025;-74
2022/12/04 03:58:12;;;;;;;58.93;32.77;;;;;;;;;;5243118;28;20100;-73
2022/12/04 04:00:44;;;;;;;59.53;34.57;;;;;;;;;;5241392;28;20028;-73
2022/12/04 04:03:20;;;;;;;61.23;34.23;;;;;;;;;;5242679;28;20029;-73
2022/12/04 04:05:53;;;;;;;60.60;34.70;;;;;;;;;;5241478;28;20087;-73
2022/12/04 04:08:26;;;;;;;55.93;32.03;;;;;;;;;;5242462;28;20420;-73
2022/12/04 04:11:00;;;;;;;56.10;32.27;;;;;;;;;;5242387;28;20033;-73
2022/12/04 04:25:06;;;;;;;55.43;32.23;;;;;;;;;;5242256;28;20441;-74
2022/12/04 04:27:37;;;;;;;64.60;36.73;;;;;;;;;;5241313;28;20083;-74
2022/12/04 04:30:08;;;;;;;60.93;34.57;;;;;;;;;;5242002;28;20013;-74
2022/12/04 04:32:43;;;;;;;59.03;34.50;;;;;;;;;;5240833;28;20028;-74
2022/12/04 04:35:26;;;;;;;57.60;32.63;;;;;;;;;;5241146;28;20052;-74
2022/12/04 04:38:21;;;;;;;61.40;34.43;;;;;;;;;;5241837;28;20083;-74
2022/12/04 04:41:13;;;;;;;57.10;33.17;;;;;;;;;;5227618;28;20029;-74
2022/12/04 04:44:02;;;;;;;60.93;35.47;;;;;;;;;;5241469;28;20040;-74
2022/12/04 04:46:36;;;;;;;60.92;34.05;;;;;;;;;;5241377;28;20033;-73
2022/12/04 04:49:09;;;;;;;62.23;35.20;;;;;;;;;;5240685;28;20469;-74
2022/12/04 04:51:41;;;;;;;58.90;34.63;;;;;;;;;;5241071;28;20476;-74
2022/12/04 04:54:13;;;;;;;63.23;35.33;;;;;;;;;;5241938;28;20101;-74
2022/12/04 04:56:45;;;;;;;57.57;33.90;;;;;;;;;;5240223;28;20025;-74
2022/12/04 04:59:16;;;;;;;54.60;30.20;;;;;;;;;;5241740;28;20079;-74
2022/12/04 05:01:47;;;;;;;59.27;33.30;;;;;;;;;;5240245;28;20025;-74
2022/12/04 05:04:19;;;;;;;55.30;33.07;;;;;;;;;;5241511;28;20060;-74
2022/12/04 05:06:50;;;;;;;61.27;35.53;;;;;;;;;;5241120;28;20041;-75
2022/12/04 05:09:21;;;;;;;61.87;35.77;;;;;;;;;;5240418;28;20095;-73
2022/12/04 05:11:52;;;;;;;56.52;32.52;;;;;;;;;;5241216;28;20104;-73
2022/12/04 05:14:23;;;;;;;58.42;31.68;;;;;;;;;;5241018;28;20014;-73
2022/12/04 05:16:54;;;;;;;62.27;33.83;;;;;;;;;;5240109;28;20025;-73
2022/12/04 05:22:15;;;;;;;56.00;31.10;;;;;;;;;;5241668;28;20037;-73
2022/12/04 05:24:46;;;;;;;57.67;33.87;;;;;;;;;;5239684;28;20025;-73
2022/12/04 05:27:18;;;;;;;55.60;32.43;;;;;;;;;;5241152;28;20026;-74
2022/12/04 05:29:51;;;;;;;57.30;33.03;;;;;;;;;;5239727;28;20121;-74
2022/12/04 05:32:24;;;;;;;57.73;33.33;;;;;;;;;;5240742;28;20025;-73
2022/12/04 05:34:55;;;;;;;54.57;31.23;;;;;;;;;;5240299;28;20416;-74
2022/12/04 05:37:27;;;;;;;63.40;36.43;;;;;;;;;;5239689;28;20025;-74
2022/12/04 05:39:58;;;;;;;58.93;33.70;;;;;;;;;;5240472;28;20040;-74
2022/12/04 05:42:29;;;;;;;57.34;33.40;;;;;;;;;;5240303;28;20447;-73
2022/12/04 05:45:00;;;;;;;56.20;33.33;;;;;;;;;;5239783;28;20396;-73
2022/12/04 05:47:36;;;;;;;62.67;36.73;;;;;;;;;;5240452;28;20048;-73
2022/12/04 05:50:08;;;;;;;60.90;33.67;;;;;;;;;;5240310;28;20021;-74
2022/12/04 05:52:39;;;;;;;55.57;32.63;;;;;;;;;;5239656;28;20029;-74
2022/12/04 05:55:10;;;;;;;61.60;34.50;;;;;;;;;;5240540;28;20037;-74
2022/12/04 05:57:41;;;;;;;59.56;32.38;;;;;;;;;;5240105;28;20017;-74
2022/12/04 06:00:13;;;;;;;52.26;31.70;;;;;;;;;;5239717;28;20014;-74
2022/12/04 06:02:44;;;;;;;55.10;31.93;;;;;;;;;;5239801;28;20022;-75
2022/12/04 06:05:16;;;;;;;59.63;34.30;;;;;;;;;;5239692;28;20377;-74
2022/12/04 06:07:47;;;;;;;57.33;32.60;;;;;;;;;;5239761;28;20108;-73
2022/12/04 06:10:18;;;;;;;56.10;33.03;;;;;;;;;;5240463;28;20140;-75
2022/12/04 06:12:49;;;;;;;56.90;32.80;;;;;;;;;;5239024;28;20032;-74
2022/12/04 06:15:20;;;;;;;60.17;33.00;;;;;;;;;;5240275;28;20104;-74
2022/12/04 06:17:51;;;;;;;58.73;32.60;;;;;;;;;;5239990;28;20032;-74
2022/12/04 06:20:23;;;;;;;54.60;32.10;;;;;;;;;;5239310;28;20540;-76
2022/12/04 06:22:54;;;;;;;55.87;32.57;;;;;;;;;;5240208;28;20461;-74
2022/12/04 06:25:25;;;;;;;62.80;35.88;;;;;;;;;;5240049;28;20033;-74
2022/12/04 06:27:56;;;;;;;55.93;33.00;;;;;;;;;;5239351;28;20013;-74
2022/12/04 06:30:29;;;;;;;58.97;31.87;;;;;;;;;;5239911;28;20105;-74
2022/12/04 06:33:00;;;;;;;55.87;34.63;;;;;;;;;;5239306;28;20024;-74
2022/12/04 06:35:31;;;;;;;56.60;32.03;;;;;;;;;;5239801;28;20046;-74
2022/12/04 06:38:02;;;;;;;58.40;32.97;;;;;;;;;;5239712;28;20024;-74
2022/12/04 06:40:33;;;;;;;63.20;35.40;;;;;;;;;;5239040;28;20028;-75
2022/12/04 06:43:05;;;;;;;57.10;32.73;;;;;;;;;;5239642;28;20453;-73
2022/12/04 06:45:36;;;;;;;56.77;33.83;;;;;;;;;;5239883;28;20543;-74
2022/12/04 06:48:07;;;;;;;57.32;33.92;;;;;;;;;;5239039;28;20104;-74
2022/12/04 06:50:38;;;;;;;58.57;34.40;;;;;;;;;;5239260;28;20021;-74
2022/12/04 06:53:10;;;;;;;61.13;35.23;;;;;;;;;;5240112;28;20096;-74
2022/12/04 06:55:47;;;;;;;61.40;34.17;;;;;;;;;;5241923;28;20055;-75
2022/12/04 06:58:18;;;;;;;60.57;35.27;;;;;;;;;;5244011;28;20025;-73
2022/12/04 07:00:50;;;;;;;61.13;34.50;;;;;;;;;;5243337;28;20025;-74
2022/12/04 07:03:21;;;;;;;60.67;34.40;;;;;;;;;;5243011;28;20036;-74
2022/12/04 07:05:52;;;;;;;59.40;32.77;;;;;;;;;;5243617;28;20036;-74
2022/12/04 07:08:23;;;;;;;58.52;34.12;;;;;;;;;;5242789;28;20022;-73
2022/12/04 07:10:54;;;;;;;55.64;32.88;;;;;;;;;;5243453;28;20021;-73
2022/12/04 07:13:26;;;;;;;55.24;32.18;;;;;;;;;;5243357;28;20013;-73
2022/12/04 07:16:05;;;;;;;59.43;33.90;;;;;;;;;;5242781;28;20080;-73
2022/12/04 07:18:36;;;;;;;59.08;34.03;;;;;;;;;;5243069;28;20382;-73
2022/12/04 07:21:09;;;;;;;55.87;32.50;;;;;;;;;;5243242;28;20096;-74
2022/12/04 07:23:40;;;;;;;59.20;34.93;;;;;;;;;;5241881;28;20032;-73
2022/12/04 07:26:12;;;;;;;56.40;33.23;;;;;;;;;;5243462;28;20460;-73
2022/12/04 07:28:44;;;;;;;56.17;31.97;;;;;;;;;;5242737;28;20048;-73
2022/12/04 07:31:16;;;;;;;56.30;31.87;;;;;;;;;;5242517;28;20464;-73
2022/12/04 07:33:48;;;;;;;55.77;31.90;;;;;;;;;;5242622;28;20049;-73
2022/12/04 07:36:19;;;;;;;55.83;33.07;;;;;;;;;;5242170;28;20512;-74
2022/12/04 07:38:51;;;;;;;55.50;31.20;;;;;;;;;;5242491;28;20392;-73
2022/12/04 07:41:22;;;;;;;57.77;33.27;;;;;;;;;;5242740;28;20036;-73
2022/12/04 07:43:53;;;;;;;53.23;32.50;;;;;;;;;;5242135;28;20465;-74
2022/12/04 07:46:26;;;;;;;49.20;30.70;;;;;;;;;;5242751;28;20026;-73
2022/12/04 07:48:57;;;;;;;54.30;34.10;;;;;;;;;;5242561;28;20049;-73
2022/12/04 07:51:29;;;;;;;55.07;31.83;;;;;;;;;;5241944;28;20060;-74
2022/12/04 07:54:00;;;;;;;51.63;30.50;;;;;;;;;;5242897;28;20454;-74
2022/12/04 07:56:32;;;;;;;53.63;34.80;;;;;;;;;;5242850;28;20035;-75
2022/12/04 07:59:03;;;;;;;50.37;30.13;;;;;;;;;;5241693;28;20075;-74
2022/12/04 08:01:34;;;;;;;53.57;31.43;;;;;;;;;;5242890;28;20023;-75
2022/12/04 08:04:05;;;;;;;50.60;29.50;;;;;;;;;;5242396;28;20033;-74
2022/12/04 08:06:37;;;;;;;49.17;29.13;;;;;;;;;;5241462;28;20034;-74
2022/12/04 08:09:08;;;;;;;47.13;28.83;;;;;;;;;;5242509;28;20018;-74
2022/12/04 08:11:41;;;;;;;49.96;30.62;;;;;;;;;;5241473;28;20438;-75
2022/12/04 08:14:12;;;;;;;46.80;27.80;;;;;;;;;;5243486;28;20048;-75
2022/12/04 08:16:43;;;;;;;46.27;28.00;;;;;;;;;;5242726;28;20057;-74
2022/12/04 08:19:14;;;;;;;47.30;29.17;;;;;;;;;;5241982;28;20017;-75
2022/12/04 08:21:46;;;;;;;44.52;26.92;;;;;;;;;;5235336;28;20022;-74
2022/12/04 08:24:17;;;;;;;45.23;27.57;;;;;;;;;;5221802;28;20013;-74
2022/12/04 08:26:48;;;;;;;45.73;28.13;;;;;;;;;;5220369;28;20029;-73
2022/12/04 08:29:19;;;;;;;43.90;26.23;;;;;;;;;;5221397;28;20028;-73
2022/12/04 08:31:50;;;;;;;43.50;27.47;;;;;;;;;;5220971;28;20033;-74
2022/12/04 08:34:22;;;;;;;42.13;27.43;;;;;;;;;;5220379;28;20029;-74
2022/12/04 08:36:53;;;;;;;42.80;27.06;;;;;;;;;;5221118;28;20052;-74
2022/12/04 08:39:24;;;;;;;41.07;25.87;;;;;;;;;;5221128;28;20125;-74
2022/12/04 08:41:56;;;;;;;43.40;26.13;;;;;;;;;;5220195;28;20481;-72
2022/12/04 08:44:27;;;;;;;42.84;26.94;;;;;;;;;;5220987;28;20068;-74
2022/12/04 08:46:58;;;;;;;38.73;24.80;;;;;;;;;;5220137;28;20572;-73
2022/12/04 08:49:29;;;;;;;40.77;24.97;;;;;;;;;;5220884;28;20014;-74
2022/12/04 08:52:00;;;;;;;36.97;23.87;;;;;;;;;;5220879;28;20110;-74
2022/12/04 08:54:31;;;;;;;38.73;24.43;;;;;;;;;;5220242;28;20385;-74
2022/12/04 08:57:03;;;;;;;33.50;22.47;;;;;;;;;;5220780;28;20028;-74
2022/12/04 08:59:34;;;;;;;34.87;23.37;;;;;;;;;;5220630;28;20017;-74
2022/12/04 09:02:05;;;;;;;35.32;21.92;;;;;;;;;;5219634;28;20508;-74
2022/12/04 09:04:36;;;;;;;35.60;23.20;;;;;;;;;;5220436;28;20414;-74
2022/12/04 09:07:07;;;;;;;33.77;21.33;;;;;;;;;;5220532;28;20482;-74
2022/12/04 09:09:38;;;;;;;33.66;22.02;;;;;;;;;;5219374;28;20018;-74
2022/12/04 09:12:10;;;;;;;36.47;21.20;;;;;;;;;;5220723;28;20109;-73
2022/12/04 09:14:41;;;;;;;35.03;22.27;;;;;;;;;;5220229;28;20037;-73
2022/12/04 09:17:12;;;;;;;34.67;21.80;;;;;;;;;;5219265;28;20033;-72
2022/12/04 09:19:43;;;;;;;38.20;23.53;;;;;;;;;;5220059;28;20535;-72
2022/12/04 09:22:14;;;;;;;35.16;22.62;;;;;;;;;;5219806;28;20041;-73
2022/12/04 09:24:46;;;;;;;33.63;21.63;;;;;;;;;;5219873;28;20014;-73
2022/12/04 09:27:17;;;;;;;31.73;20.87;;;;;;;;;;5220532;28;20061;-73
2022/12/04 09:29:48;;;;;;;34.63;21.43;;;;;;;;;;5218865;28;20029;-72
2022/12/04 09:32:19;;;;;;;33.50;20.93;;;;;;;;;;5220134;28;20022;-72
2022/12/04 09:34:50;;;;;;;31.00;19.57;;;;;;;;;;5219240;28;20053;-72
2022/12/04 09:37:21;;;;;;;34.00;21.20;;;;;;;;;;5219069;28;20093;-72
2022/12/04 09:39:53;;;;;;;33.06;21.26;;;;;;;;;;5220085;28;20034;-71
2022/12/04 09:42:41;;;;;;;33.14;21.68;;;;;;;;;;5219966;28;20021;-72
2022/12/04 09:45:17;;;;;;;34.13;21.23;;;;;;;;;;5219144;28;20381;-71
2022/12/04 09:47:54;;;;;;;34.87;22.97;;;;;;;;;;5219089;28;20037;-73
2022/12/04 09:50:30;;;;;;;30.53;19.53;;;;;;;;;;5219178;28;20084;-72
2022/12/04 09:53:08;;;;;;;31.20;21.13;;;;;;;;;;5219446;28;20385;-73
2022/12/04 09:55:46;;;;;;;30.50;19.20;;;;;;;;;;5219156;28;20026;-73
2022/12/04 09:58:20;;;;;;;30.40;19.37;;;;;;;;;;5219421;28;20535;-72
2022/12/04 10:00:51;;;;;;;30.70;18.77;;;;;;;;;;5219964;28;20057;-72
2022/12/04 10:03:25;;;;;;;30.67;19.27;;;;;;;;;;5219325;28;20111;-72
2022/12/04 10:06:06;;;;;;;33.17;19.03;;;;;;;;;;5218771;28;20030;-72
2022/12/04 10:08:40;;;;;;;26.73;18.40;;;;;;;;;;5219237;28;20056;-72
2022/12/04 10:11:12;;;;;;;27.10;17.30;;;;;;;;;;5219096;28;20013;-72
2022/12/04 10:13:53;;;;;;;25.87;16.30;;;;;;;;;;5219353;28;20087;-72
2022/12/04 10:16:37;;;;;;;29.20;18.07;;;;;;;;;;5219328;28;20025;-73
2022/12/04 10:19:30;;;;;;;27.03;18.27;;;;;;;;;;5218500;28;20029;-72
2022/12/04 10:22:21;;;;;;;26.20;15.40;;;;;;;;;;5219410;28;20026;-71
2022/12/04 10:24:56;;;;;;;27.97;17.10;;;;;;;;;;5219112;28;20041;-71
2022/12/04 10:27:29;;;;;;;28.03;17.00;;;;;;;;;;5218630;28;20117;-71
2022/12/04 10:30:04;;;;;;;26.73;16.23;;;;;;;;;;5221464;28;20021;-71
2022/12/04 10:32:35;;;;;;;29.70;19.30;;;;;;;;;;5222476;28;20029;-72
2022/12/04 10:35:23;;;;;;;29.70;18.33;;;;;;;;;;5223348;28;20057;-71
2022/12/04 10:38:05;;;;;;;23.77;15.48;;;;;;;;;;5223511;28;20381;-70
2022/12/04 10:40:41;;;;;;;28.13;16.40;;;;;;;;;;5222821;28;20383;-71
2022/12/04 10:43:31;;;;;;;25.77;15.73;;;;;;;;;;5223731;28;20381;-70
2022/12/04 10:46:02;;;;;;;30.37;17.23;;;;;;;;;;5223062;28;20417;-70
2022/12/04 10:48:37;;;;;;;27.93;18.53;;;;;;;;;;5221924;28;20022;-70
2022/12/04 10:51:12;;;;;;;29.07;19.20;;;;;;;;;;5222360;28;20433;-70
2022/12/04 10:53:44;;;;;;;27.93;17.13;;;;;;;;;;5220500;28;20087;-70
2022/12/04 10:56:20;;;;;;;27.83;17.53;;;;;;;;;;5221132;28;20022;-70
2022/12/04 10:59:14;;;;;;;28.63;17.40;;;;;;;;;;5220698;28;20032;-70
2022/12/04 11:01:46;;;;;;;27.73;17.40;;;;;;;;;;5206543;28;20350;-70
2022/12/04 11:04:19;;;;;;;29.17;19.07;;;;;;;;;;5221298;28;20021;-70
2022/12/04 11:06:58;;;;;;;26.23;18.10;;;;;;;;;;5221186;28;20084;-70
2022/12/04 11:09:30;;;;;;;29.02;19.30;;;;;;;;;;5221773;28;20026;-70
2022/12/04 11:12:27;;;;;;;26.53;16.83;;;;;;;;;;5222499;28;20084;-71
2022/12/04 11:15:10;;;;;;;29.07;20.10;;;;;;;;;;5216980;28;20037;-72
2022/12/04 11:17:41;;;;;;;26.47;17.77;;;;;;;;;;5222478;28;20112;-72
2022/12/04 11:20:23;;;;;;;27.43;17.10;;;;;;;;;;5223110;28;20097;-72
2022/12/04 11:22:58;;;;;;;26.87;17.87;;;;;;;;;;5221794;28;20038;-71
2022/12/04 11:25:32;;;;;;;29.53;19.43;;;;;;;;;;5222191;28;20029;-70
2022/12/04 11:28:04;;;;;;;25.80;17.67;;;;;;;;;;5222493;28;20022;-74
2022/12/04 11:30:36;;;;;;;27.10;17.27;;;;;;;;;;5222123;28;20381;-73
2022/12/04 11:33:14;;;;;;;27.83;18.57;;;;;;;;;;5222490;28;20026;-72
2022/12/04 11:35:50;;;;;;;26.17;17.42;;;;;;;;;;5221062;28;20086;-74
2022/12/04 11:38:26;;;;;;;28.17;18.07;;;;;;;;;;5222347;28;20408;-73
2022/12/04 11:40:57;;;;;;;26.80;16.77;;;;;;;;;;5221564;28;20026;-72
2022/12/04 11:43:31;;;;;;;25.17;17.27;;;;;;;;;;5221392;28;20017;-73
2022/12/04 11:46:05;;;;;;;28.40;16.93;;;;;;;;;;5221877;28;20128;-72
2022/12/04 11:48:41;;;;;;;26.70;16.87;;;;;;;;;;5221840;28;20372;-72
2022/12/04 11:51:26;;;;;;;27.07;17.60;;;;;;;;;;5234448;28;20053;-72
2022/12/04 11:54:13;;;;;;;27.90;19.47;;;;;;;;;;5242215;28;20021;-73
2022/12/04 11:56:46;;;;;;;24.97;16.33;;;;;;;;;;5241428;28;20025;-73
2022/12/04 11:59:38;;;;;;;25.13;16.42;;;;;;;;;;5242617;28;20033;-73
2022/12/04 12:02:12;;;;;;;25.57;17.30;;;;;;;;;;5225270;28;20562;-73
2022/12/04 12:04:49;;;;;;;27.63;17.10;;;;;;;;;;5241395;28;20051;-73
2022/12/04 12:07:44;;;;;;;24.47;16.33;;;;;;;;;;5243395;28;20037;-74
2022/12/04 12:10:32;;;;;;;23.93;15.80;;;;;;;;;;5243179;28;20465;-74
2022/12/04 12:13:12;;;;;;;26.13;17.70;;;;;;;;;;5241423;28;20029;-73
2022/12/04 12:15:48;;;;;;;24.50;16.83;;;;;;;;;;5242127;28;20412;-75
2022/12/04 12:18:28;;;;;;;27.33;17.20;;;;;;;;;;5241448;28;20096;-75
2022/12/04 12:21:18;;;;;;;24.97;15.60;;;;;;;;;;5241703;28;20469;-74
2022/12/04 12:23:50;;;;;;;22.17;14.67;;;;;;;;;;5241539;28;20104;-73
2022/12/04 12:26:24;;;;;;;25.40;16.93;;;;;;;;;;5241329;28;20116;-73
2022/12/04 12:29:01;;;;;;;27.30;18.00;;;;;;;;;;5241905;28;20022;-74
2022/12/04 12:31:44;;;;;;;22.20;16.00;;;;;;;;;;5241832;28;20499;-74
2022/12/04 12:34:21;;;;;;;23.87;16.00;;;;;;;;;;5241980;28;20075;-75
2022/12/04 12:36:53;;;;;;;23.60;15.23;;;;;;;;;;5241540;28;20045;-74
2022/12/04 12:39:29;;;;;;;23.57;15.40;;;;;;;;;;5241065;28;20021;-75
2022/12/04 12:42:00;;;;;;;25.67;17.37;;;;;;;;;;5241632;28;20025;-74
2022/12/04 12:44:42;;;;;;;24.27;16.63;;;;;;;;;;5241190;28;20021;-74
2022/12/04 12:47:18;;;;;;;25.57;17.73;;;;;;;;;;5241063;28;20049;-73
2022/12/04 12:49:53;;;;;;;23.30;16.23;;;;;;;;;;5241296;28;20373;-75
2022/12/04 12:52:34;;;;;;;23.37;15.37;;;;;;;;;;5240691;28;20082;-75
2022/12/04 12:55:23;;;;;;;24.37;16.40;;;;;;;;;;5240698;28;20556;-75
2022/12/04 12:57:55;;;;;;;24.37;16.93;;;;;;;;;;5241497;28;20060;-74
2022/12/04 13:00:28;;;;;;;23.13;16.27;;;;;;;;;;5240690;28;20477;-75
2022/12/04 13:03:18;;;;;;;23.27;15.70;;;;;;;;;;5241381;28;20029;-74
2022/12/04 13:05:52;;;;;;;23.23;16.10;;;;;;;;;;5240975;28;20441;-74
2022/12/04 13:08:26;;;;;;;24.37;16.57;;;;;;;;;;5240620;28;20486;-74
2022/12/04 13:10:57;;;;;;;22.80;15.40;;;;;;;;;;5240942;28;20025;-75
2022/12/04 13:13:30;;;;;;;18.92;13.85;;;;;;;;;;5240852;28;20102;-74
2022/12/04 13:16:01;;;;;;;21.73;14.57;;;;;;;;;;5240196;28;20097;-74
2022/12/04 13:18:36;;;;;;;20.55;15.13;;;;;;;;;;5240934;28;20100;-75
2022/12/04 13:21:09;;;;;;;20.80;15.57;;;;;;;;;;5240162;28;20017;-74
2022/12/04 13:23:40;;;;;;;21.23;14.67;;;;;;;;;;5240836;28;20021;-75
2022/12/04 13:26:20;;;;;;;22.55;15.93;;;;;;;;;;5240808;28;20135;-75
2022/12/04 13:28:55;;;;;;;22.00;15.57;;;;;;;;;;5240144;28;20412;-73
2022/12/04 13:31:33;;;;;;;20.77;15.17;;;;;;;;;;5240758;28;20104;-74
2022/12/04 13:34:11;;;;;;;21.50;14.50;;;;;;;;;;5240447;28;20020;-74
2022/12/04 13:37:11;;;;;;;20.30;14.57;;;;;;;;;;5239472;28;20569;-74
2022/12/04 13:40:01;;;;;;;22.37;14.97;;;;;;;;;;5165428;28;20485;-74
2022/12/04 13:42:32;;;;;;;22.02;15.32;;;;;;;;;;5219307;28;20030;-73
2022/12/04 13:45:09;;;;;;;20.47;14.20;;;;;;;;;;5219783;28;20017;-73
2022/12/04 13:47:41;;;;;;;21.17;14.80;;;;;;;;;;5201873;28;20040;-74
2022/12/04 13:50:17;;;;;;;23.43;15.17;;;;;;;;;;5219302;28;20014;-74
2022/12/04 13:52:49;;;;;;;20.23;14.60;;;;;;;;;;5219248;28;20101;-75
2022/12/04 13:55:28;;;;;;;23.40;15.67;;;;;;;;;;5227110;28;20160;-76
2022/12/04 13:58:00;;;;;;;21.50;15.50;;;;;;;;;;5229288;28;20014;-74
2022/12/04 14:00:33;;;;;;;21.60;15.03;;;;;;;;;;5229817;28;20377;-74
2022/12/04 14:03:06;;;;;;;22.55;15.73;;;;;;;;;;5229997;28;20017;-73
2022/12/04 14:05:41;;;;;;;19.57;14.93;;;;;;;;;;5227411;28;20026;-73
2022/12/04 14:08:18;;;;;;;24.20;16.90;;;;;;;;;;5240353;28;20028;-74
2022/12/04 14:10:58;;;;;;;23.03;15.47;;;;;;;;;;5239169;28;20024;-75
2022/12/04 14:13:42;;;;;;;19.83;13.70;;;;;;;;;;5240003;28;20028;-74
2022/12/04 14:16:16;;;;;;;22.20;16.43;;;;;;;;;;5240189;28;20014;-74
2022/12/04 14:18:48;;;;;;;21.00;14.73;;;;;;;;;;5239056;28;20018;-75
2022/12/04 14:21:20;;;;;;;20.50;14.40;;;;;;;;;;5240144;28;20016;-75
2022/12/04 14:23:51;;;;;;;23.97;15.20;;;;;;;;;;5236859;28;20423;-74
2022/12/04 14:26:24;;;;;;;20.60;15.10;;;;;;;;;;5239336;28;20072;-73
2022/12/04 14:29:16;;;;;;;22.73;15.57;;;;;;;;;;5239485;28;20014;-75
2022/12/04 14:31:48;;;;;;;20.63;15.17;;;;;;;;;;5188013;28;20045;-75
2022/12/04 14:34:21;;;;;;;20.03;14.43;;;;;;;;;;5240149;28;20018;-76
2022/12/04 14:36:53;;;;;;;20.27;13.98;;;;;;;;;;5238678;28;20049;-75
2022/12/04 14:39:33;;;;;;;22.23;15.43;;;;;;;;;;5239038;28;20021;-77
2022/12/04 14:42:16;;;;;;;20.55;15.13;;;;;;;;;;5239751;28;20021;-75
2022/12/04 14:44:50;;;;;;;19.13;14.43;;;;;;;;;;5239301;28;20104;-73
2022/12/04 14:47:30;;;;;;;22.30;15.63;;;;;;;;;;5238475;28;20062;-74
2022/12/04 14:50:01;;;;;;;20.25;14.45;;;;;;;;;;5239862;28;20021;-73
2022/12/04 14:52:44;;;;;;;22.88;15.82;;;;;;;;;;5238681;28;20030;-73
2022/12/04 14:55:35;;;;;;;20.73;14.63;;;;;;;;;;5239619;28;20025;-73
2022/12/04 14:58:29;;;;;;;24.40;16.63;;;;;;;;;;5239264;28;20071;-71
2022/12/04 15:01:02;;;;;;;19.45;14.75;;;;;;;;;;5238803;28;20104;-70
2022/12/04 15:03:35;;;;;;;20.20;15.67;;;;;;;;;;5239650;28;20021;-72
2022/12/04 15:06:10;;;;;;;20.70;15.40;;;;;;;;;;5239434;28;20034;-71
2022/12/04 15:08:52;;;;;;;23.17;16.03;;;;;;;;;;5238381;28;20108;-72
2022/12/04 15:14:13;;;;;;;19.73;14.93;;;;;;;;;;5239227;28;20014;-71
2022/12/04 15:16:44;;;;;;;21.33;14.97;;;;;;;;;;5241818;28;20021;-72